Darstellungsparameter: Aktuell verwendete Einstellungen:
Skalierung der Graphiken ... ?
xyx+y,   Skalierungsfaktor:      Skalierung: Modus: x, Faktor: 1
Darstellungszeitraum ... ?
Vom - - bis: - -   Zeitraum: 24.09.2016 - 24.09.2016
Min/Max/Avg-Anzeige ... ?
Zeige MMA aktuell
Zeige MMA Monat
Zeige MMA alles
Zeige --A aktuell
Zeige --A Monat
Zeige --A alles
Keine MMA-Anzeige
MMA:
Average (ber die Originaldaten)
MMA-Basis: 24.09.2016 - 24.09.2016
Quicknavigation für Darstellung... ?
Tage:      1T, 2T, 3T, 5T -1T -2T -3T -5T +1T +2T +3T +5T
Wochen: 1W, 2W, 3W -1W -2W -3W +1W +2W +3W
Monate: 1M, 3M, 6M -1M -3M -6M +1M +3M +6M
Jahre:    1J, 3J, 5J, 10J -1J -3J -5J -10J +1J +3J +5J +10J
Nutze für die Darstellung ... ?
Originaldaten oder Mittelwerte auf ...
Stundenbasis Tagesbasis Wochenbasis
Monatsbasis Jahresbasis      Datenbasis: Original-Daten
Darstellen als:
Statistik (Auto) Statistik J:M      Darstellung:
Zur Graphik,    zurück zur Übersicht aller Sensoren.
 
Tabellarische Datenbersicht: ?
 
Sensor: Nr:Datum:Temp:Abs-Feuchte:Windchill:Wind:
Aussen-T/F 1 24-09-2016 00:00:00 12.6 C 10.18 g/m*3 12.6 C 0 km/h
2 24-09-2016 00:05:00 12.4 C 10.05 g/m*3 12.4 C 0 km/h
3 24-09-2016 00:10:00 12.3 C 9.99 g/m*3 12.3 C 0 km/h
4 24-09-2016 00:15:00 12.3 C 9.99 g/m*3 12.3 C 0 km/h
5 24-09-2016 00:20:00 12.2 C 10.04 g/m*3 12.2 C 0 km/h
6 24-09-2016 00:25:00 12.2 C 10.04 g/m*3 12.2 C 0 km/h
7 24-09-2016 00:30:00 12.2 C 10.04 g/m*3 12.2 C 0 km/h
8 24-09-2016 00:35:00 12.1 C 9.97 g/m*3 12.1 C 0 km/h
9 24-09-2016 00:40:00 12 C 9.91 g/m*3 12 C 0 km/h
10 24-09-2016 00:45:00 11.9 C 9.85 g/m*3 11.9 C 0 km/h
11 24-09-2016 00:50:00 11.8 C 9.79 g/m*3 11.8 C 0 km/h
12 24-09-2016 00:55:00 11.8 C 9.79 g/m*3 11.8 C 0 km/h
13 24-09-2016 01:00:00 11.8 C 9.79 g/m*3 11.8 C 0 km/h
14 24-09-2016 01:05:00 11.7 C 9.73 g/m*3 11.7 C 0 km/h
15 24-09-2016 01:10:00 11.7 C 9.73 g/m*3 11.7 C 0 km/h
16 24-09-2016 01:15:00 11.6 C 9.77 g/m*3 11.6 C 0 km/h
17 24-09-2016 01:20:00 11.6 C 9.77 g/m*3 11.6 C 0 km/h
18 24-09-2016 01:25:00 11.5 C 9.71 g/m*3 11.5 C 0 km/h
19 24-09-2016 01:30:00 11.5 C 9.71 g/m*3 11.5 C 0 km/h
20 24-09-2016 01:35:00 11.4 C 9.65 g/m*3 11.4 C 0 km/h
21 24-09-2016 01:40:00 11.5 C 9.71 g/m*3 11.5 C 0 km/h
22 24-09-2016 01:45:00 11.4 C 9.65 g/m*3 11.4 C 0 km/h
23 24-09-2016 01:50:00 11.4 C 9.65 g/m*3 11.4 C 0 km/h
24 24-09-2016 01:55:00 11.3 C 9.59 g/m*3 11.3 C 0 km/h
25 24-09-2016 02:00:00 11.3 C 9.59 g/m*3 11.3 C 0 km/h
Sensor: Nr:Datum:Temp:Abs-Feuchte:Windchill:Wind:
Aussen-T/F 26 24-09-2016 02:05:00 11.2 C 9.53 g/m*3 11.2 C 0 km/h
27 24-09-2016 02:10:00 11.2 C 9.53 g/m*3 11.2 C 0 km/h
28 24-09-2016 02:15:00 11.2 C 9.53 g/m*3 11.2 C 0 km/h
29 24-09-2016 02:20:00 11.3 C 9.69 g/m*3 11.3 C 0 km/h
30 24-09-2016 02:25:00 11.3 C 9.59 g/m*3 11.3 C 0 km/h
31 24-09-2016 02:30:00 11.2 C 9.53 g/m*3 11.2 C 0 km/h
32 24-09-2016 02:35:00 11.2 C 9.53 g/m*3 11.2 C 0 km/h
33 24-09-2016 02:40:00 11.1 C 9.47 g/m*3 11.1 C 0 km/h
34 24-09-2016 02:45:00 10.9 C 9.35 g/m*3 10.9 C 0 km/h
35 24-09-2016 02:50:00 10.8 C 9.29 g/m*3 10.8 C 0 km/h
36 24-09-2016 02:55:00 10.8 C 9.39 g/m*3 10.8 C 0 km/h
37 24-09-2016 03:00:00 10.8 C 9.39 g/m*3 10.8 C 0 km/h
38 24-09-2016 03:05:00 10.8 C 9.39 g/m*3 10.8 C 0 km/h
39 24-09-2016 03:10:00 10.7 C 9.33 g/m*3 10.7 C 0 km/h
40 24-09-2016 03:15:00 10.7 C 9.33 g/m*3 10.7 C 0 km/h
41 24-09-2016 03:20:00 10.6 C 9.27 g/m*3 10.6 C 0 km/h
42 24-09-2016 03:25:00 10.6 C 9.27 g/m*3 10.6 C 0 km/h
43 24-09-2016 03:30:00 10.6 C 9.27 g/m*3 10.6 C 0 km/h
44 24-09-2016 03:35:00 10.6 C 9.27 g/m*3 10.6 C 0 km/h
45 24-09-2016 03:40:00 10.5 C 9.21 g/m*3 10.5 C 0 km/h
46 24-09-2016 03:45:00 10.4 C 9.16 g/m*3 10.4 C 0 km/h
47 24-09-2016 03:50:00 10.4 C 9.16 g/m*3 10.4 C 0 km/h
48 24-09-2016 03:55:00 10.4 C 9.16 g/m*3 10.4 C 0 km/h
49 24-09-2016 04:00:00 10.3 C 9.1 g/m*3 10.3 C 0 km/h
50 24-09-2016 04:05:00 10.3 C 9.1 g/m*3 10.3 C 0 km/h
Sensor: Nr:Datum:Temp:Abs-Feuchte:Windchill:Wind:
Aussen-T/F 51 24-09-2016 04:10:00 10.3 C 9.1 g/m*3 10.3 C 0 km/h
52 24-09-2016 04:15:00 10.2 C 9.04 g/m*3 10.2 C 0 km/h
53 24-09-2016 04:20:00 10.2 C 9.04 g/m*3 10.2 C 0 km/h
54 24-09-2016 04:25:00 10.2 C 9.04 g/m*3 10.2 C 0 km/h
55 24-09-2016 04:30:00 10.2 C 9.04 g/m*3 10.2 C 0 km/h
56 24-09-2016 04:35:00 10.1 C 8.98 g/m*3 10.1 C 0 km/h
57 24-09-2016 04:40:00 10 C 8.93 g/m*3 10 C 0 km/h
58 24-09-2016 04:45:00 9.9 C 8.87 g/m*3 9.9 C 0 km/h
59 24-09-2016 04:50:00 9.8 C 8.81 g/m*3 9.8 C 0 km/h
60 24-09-2016 04:55:00 9.8 C 8.81 g/m*3 9.8 C 0 km/h
61 24-09-2016 05:00:00 9.8 C 8.81 g/m*3 9.8 C 0 km/h
62 24-09-2016 05:05:00 9.7 C 8.76 g/m*3 9.7 C 0 km/h
63 24-09-2016 05:10:00 9.8 C 8.91 g/m*3 9.8 C 0 km/h
64 24-09-2016 05:15:00 9.7 C 8.76 g/m*3 9.7 C 0 km/h
65 24-09-2016 05:20:00 9.6 C 8.7 g/m*3 9.6 C 0 km/h
66 24-09-2016 05:25:00 9.4 C 8.59 g/m*3 9.4 C 0 km/h
67 24-09-2016 05:30:00 9.3 C 8.54 g/m*3 9.3 C 0 km/h
68 24-09-2016 05:35:00 9.3 C 8.54 g/m*3 9.3 C 0 km/h
69 24-09-2016 05:40:00 9.3 C 8.54 g/m*3 9.3 C 0 km/h
70 24-09-2016 05:45:00 9.4 C 8.59 g/m*3 9.4 C 0 km/h
71 24-09-2016 05:50:00 9.4 C 8.59 g/m*3 9.4 C 0 km/h
72 24-09-2016 05:55:00 9.3 C 8.54 g/m*3 9.3 C 0 km/h
73 24-09-2016 06:00:00 9.3 C 8.54 g/m*3 9.3 C 0 km/h
74 24-09-2016 06:05:00 9.2 C 8.48 g/m*3 9.2 C 0 km/h
75 24-09-2016 06:10:00 9.1 C 8.43 g/m*3 9.1 C 0 km/h
Sensor: Nr:Datum:Temp:Abs-Feuchte:Windchill:Wind:
Aussen-T/F 76 24-09-2016 06:15:00 9.1 C 8.43 g/m*3 9.1 C 0 km/h
77 24-09-2016 06:20:00 9.1 C 8.43 g/m*3 9.1 C 1.6 km/h
78 24-09-2016 06:25:00 9.1 C 8.43 g/m*3 9.1 C 0 km/h
79 24-09-2016 06:30:00 9.2 C 8.57 g/m*3 9.2 C 0 km/h
80 24-09-2016 06:35:00 9.1 C 8.52 g/m*3 9.1 C 0 km/h
81 24-09-2016 06:40:00 9 C 8.38 g/m*3 9 C 0 km/h
82 24-09-2016 06:45:00 8.9 C 8.32 g/m*3 8.9 C 0 km/h
83 24-09-2016 06:50:00 8.9 C 8.32 g/m*3 8.9 C 0 km/h
84 24-09-2016 06:55:00 8.8 C 8.27 g/m*3 8.8 C 0 km/h
85 24-09-2016 07:00:00 8.8 C 8.36 g/m*3 8.8 C 0 km/h
86 24-09-2016 07:05:00 8.7 C 8.3 g/m*3 8.7 C 0 km/h
87 24-09-2016 07:10:00 8.7 C 8.22 g/m*3 8.7 C 0 km/h
88 24-09-2016 07:15:00 8.7 C 8.22 g/m*3 8.7 C 0 km/h
89 24-09-2016 07:20:00 8.7 C 8.3 g/m*3 8.7 C 0 km/h
90 24-09-2016 07:25:00 8.7 C 8.3 g/m*3 8.7 C 0 km/h
91 24-09-2016 07:30:00 8.6 C 8.25 g/m*3 8.6 C 0 km/h
92 24-09-2016 07:35:00 8.7 C 8.3 g/m*3 8.7 C 0 km/h
93 24-09-2016 07:40:00 8.7 C 8.3 g/m*3 8.7 C 0 km/h
94 24-09-2016 07:45:00 8.8 C 8.36 g/m*3 8.8 C 0 km/h
95 24-09-2016 07:50:00 8.8 C 8.36 g/m*3 8.8 C 0 km/h
96 24-09-2016 07:55:00 8.9 C 8.41 g/m*3 8.9 C 0 km/h
97 24-09-2016 08:00:00 9.1 C 8.52 g/m*3 9.1 C 0 km/h
98 24-09-2016 08:05:00 9.2 C 8.57 g/m*3 9.2 C 0 km/h
99 24-09-2016 08:10:00 9.3 C 8.63 g/m*3 9.3 C 0 km/h
100 24-09-2016 08:15:00 9.3 C 8.63 g/m*3 9.3 C 0 km/h
Sensor: Nr:Datum:Temp:Abs-Feuchte:Windchill:Wind:
Aussen-T/F 101 24-09-2016 08:20:00 9.4 C 8.68 g/m*3 9.4 C 0 km/h
102 24-09-2016 08:25:00 9.4 C 8.68 g/m*3 9.4 C 0 km/h
103 24-09-2016 08:30:00 9.5 C 8.74 g/m*3 9.5 C 0 km/h
104 24-09-2016 08:35:00 9.6 C 8.79 g/m*3 9.6 C 0 km/h
105 24-09-2016 08:40:00 9.6 C 8.79 g/m*3 9.6 C 0 km/h
106 24-09-2016 08:45:00 9.6 C 8.79 g/m*3 9.6 C 0 km/h
107 24-09-2016 08:50:00 9.7 C 8.85 g/m*3 9.7 C 0 km/h
108 24-09-2016 08:55:00 9.7 C 8.85 g/m*3 9.7 C 0 km/h
109 24-09-2016 09:00:00 9.7 C 8.85 g/m*3 9.7 C 0 km/h
110 24-09-2016 09:05:00 9.7 C 8.85 g/m*3 9.7 C 0 km/h
111 24-09-2016 09:10:00 9.7 C 8.85 g/m*3 9.7 C 0 km/h
112 24-09-2016 09:15:00 9.8 C 8.91 g/m*3 9.8 C 1.6 km/h
113 24-09-2016 09:20:00 9.8 C 8.91 g/m*3 9.8 C 0 km/h
114 24-09-2016 09:25:00 9.8 C 8.91 g/m*3 9.8 C 0 km/h
115 24-09-2016 09:30:00 9.9 C 8.96 g/m*3 9.9 C 0 km/h
116 24-09-2016 09:35:00 10.1 C 9.17 g/m*3 10.1 C 0 km/h
117 24-09-2016 09:40:00 10.2 C 9.23 g/m*3 10.2 C 0 km/h
118 24-09-2016 09:45:00 10.3 C 9.19 g/m*3 10.3 C 0 km/h
119 24-09-2016 09:50:00 10.3 C 9.29 g/m*3 10.3 C 0 km/h
120 24-09-2016 09:55:00 10.4 C 9.35 g/m*3 10.4 C 0 km/h
121 24-09-2016 10:00:00 10.5 C 9.41 g/m*3 10.5 C 0 km/h
122 24-09-2016 10:05:00 10.6 C 9.37 g/m*3 10.6 C 0 km/h
123 24-09-2016 10:10:00 10.6 C 9.37 g/m*3 10.6 C 0 km/h
124 24-09-2016 10:15:00 10.6 C 9.37 g/m*3 10.6 C 0 km/h
125 24-09-2016 10:20:00 10.6 C 9.37 g/m*3 10.6 C 0 km/h
Sensor: Nr:Datum:Temp:Abs-Feuchte:Windchill:Wind:
Aussen-T/F 126 24-09-2016 10:25:00 10.7 C 9.43 g/m*3 10.7 C 0 km/h
127 24-09-2016 10:30:00 10.7 C 9.53 g/m*3 10.7 C 0 km/h
128 24-09-2016 10:35:00 10.8 C 9.59 g/m*3 10.8 C 0 km/h
129 24-09-2016 10:40:00 10.8 C 9.59 g/m*3 10.8 C 0 km/h
130 24-09-2016 10:45:00 10.9 C 9.65 g/m*3 10.9 C 0 km/h
131 24-09-2016 10:50:00 11 C 9.71 g/m*3 11 C 0 km/h
132 24-09-2016 10:55:00 11.2 C 9.83 g/m*3 11.2 C 0 km/h
133 24-09-2016 11:00:00 11.3 C 9.89 g/m*3 11.3 C 0 km/h
134 24-09-2016 11:05:00 11.4 C 9.96 g/m*3 11.4 C 0 km/h
135 24-09-2016 11:10:00 11.6 C 10.08 g/m*3 11.6 C 0 km/h
136 24-09-2016 11:15:00 11.7 C 10.15 g/m*3 11.7 C 0 km/h
137 24-09-2016 11:20:00 11.9 C 10.27 g/m*3 11.9 C 0 km/h
138 24-09-2016 11:25:00 12.1 C 10.4 g/m*3 12.1 C 0 km/h
139 24-09-2016 11:30:00 12.2 C 10.47 g/m*3 12.2 C 0 km/h
140 24-09-2016 11:35:00 12.4 C 10.6 g/m*3 12.4 C 0 km/h
141 24-09-2016 11:40:00 12.7 C 10.8 g/m*3 12.7 C 0 km/h
142 24-09-2016 11:45:00 12.8 C 10.87 g/m*3 12.8 C 0 km/h
143 24-09-2016 11:50:00 12.9 C 10.93 g/m*3 12.9 C 0 km/h
144 24-09-2016 11:55:00 13.1 C 11.07 g/m*3 13.1 C 0 km/h
145 24-09-2016 12:00:00 13.3 C 11.21 g/m*3 13.3 C 0 km/h
146 24-09-2016 12:05:00 13.4 C 11.28 g/m*3 13.4 C 0 km/h
147 24-09-2016 12:10:00 13.6 C 11.3 g/m*3 13.6 C 0 km/h
148 24-09-2016 12:15:00 13.8 C 11.56 g/m*3 13.8 C 0 km/h
149 24-09-2016 12:20:00 13.9 C 11.51 g/m*3 13.9 C 0 km/h
150 24-09-2016 12:25:00 14.1 C 11.65 g/m*3 14.1 C 0 km/h
Sensor: Nr:Datum:Temp:Abs-Feuchte:Windchill:Wind:
Aussen-T/F 151 24-09-2016 12:30:00 14.3 C 11.79 g/m*3 14.3 C 0 km/h
152 24-09-2016 12:35:00 14.5 C 11.94 g/m*3 14.5 C 0 km/h
153 24-09-2016 12:40:00 14.7 C 12.09 g/m*3 14.7 C 0 km/h
154 24-09-2016 12:45:00 14.9 C 12.24 g/m*3 14.9 C 0 km/h
155 24-09-2016 12:50:00 15.1 C 12.39 g/m*3 15.1 C 0 km/h
156 24-09-2016 12:55:00 15.3 C 12.54 g/m*3 15.3 C 0 km/h
157 24-09-2016 13:00:00 15.4 C 12.48 g/m*3 15.4 C 0 km/h
158 24-09-2016 13:05:00 15.7 C 12.58 g/m*3 15.7 C 0 km/h
159 24-09-2016 13:10:00 16 C 12.81 g/m*3 16 C 0 km/h
160 24-09-2016 13:15:00 16.3 C 13.04 g/m*3 16.3 C 0 km/h
161 24-09-2016 13:20:00 16.5 C 13.06 g/m*3 16.5 C 0 km/h
162 24-09-2016 13:25:00 16.7 C 13.07 g/m*3 16.7 C 0 km/h
163 24-09-2016 13:30:00 16.8 C 13.15 g/m*3 16.8 C 0 km/h
164 24-09-2016 13:35:00 16.9 C 13.23 g/m*3 16.9 C 0 km/h
165 24-09-2016 13:40:00 17.1 C 13.25 g/m*3 17.1 C 0 km/h
166 24-09-2016 13:45:00 17.2 C 13.18 g/m*3 17.2 C 0 km/h
167 24-09-2016 13:50:00 17.3 C 13.11 g/m*3 17.3 C 0 km/h
168 24-09-2016 13:55:00 17.4 C 13.04 g/m*3 17.4 C 0 km/h
169 24-09-2016 14:00:00 17.7 C 13.28 g/m*3 17.7 C 0 km/h
170 24-09-2016 14:05:00 17.8 C 13.36 g/m*3 17.8 C 0 km/h
171 24-09-2016 14:10:00 18.1 C 13.6 g/m*3 18.1 C 0 km/h
172 24-09-2016 14:15:00 18.2 C 13.37 g/m*3 18.2 C 3.2 km/h
173 24-09-2016 14:20:00 18.5 C 11.87 g/m*3 18.5 C 6.4 km/h
174 24-09-2016 14:25:00 19.1 C 12.62 g/m*3 19.1 C 4.8 km/h
175 24-09-2016 14:30:00 19.6 C 12.32 g/m*3 19.6 C 4.8 km/h
Sensor: Nr:Datum:Temp:Abs-Feuchte:Windchill:Wind:
Aussen-T/F 176 24-09-2016 14:35:00 19.8 C 12.64 g/m*3 19.8 C 4.8 km/h
177 24-09-2016 14:40:00 20.2 C 13.11 g/m*3 20.2 C 4.8 km/h
178 24-09-2016 14:45:00 20.4 C 12.03 g/m*3 20.4 C 1.6 km/h
179 24-09-2016 14:50:00 20.7 C 11.34 g/m*3 20.7 C 6.4 km/h
180 24-09-2016 14:55:00 21 C 11.17 g/m*3 21 C 6.4 km/h
181 24-09-2016 15:00:00 21.2 C 12.05 g/m*3 21.2 C 8.1 km/h
182 24-09-2016 15:05:00 21.4 C 11.06 g/m*3 21.4 C 6.4 km/h
183 24-09-2016 15:10:00 21.6 C 11.19 g/m*3 21.6 C 11.3 km/h
184 24-09-2016 15:15:00 21.7 C 12.02 g/m*3 21.7 C 11.3 km/h
185 24-09-2016 15:20:00 21.7 C 12.21 g/m*3 21.7 C 1.6 km/h
186 24-09-2016 15:25:00 21.7 C 12.21 g/m*3 21.7 C 0 km/h
187 24-09-2016 15:30:00 21.7 C 11.06 g/m*3 21.7 C 4.8 km/h
188 24-09-2016 15:35:00 21.8 C 10.36 g/m*3 21.8 C 11.3 km/h
189 24-09-2016 15:40:00 22 C 10.48 g/m*3 22 C 6.4 km/h
190 24-09-2016 15:45:00 22.1 C 10.35 g/m*3 22.1 C 8.1 km/h
191 24-09-2016 15:50:00 22.1 C 11.91 g/m*3 22.1 C 3.2 km/h
192 24-09-2016 15:55:00 22 C 11.26 g/m*3 22 C 3.2 km/h
193 24-09-2016 16:00:00 21.9 C 11.39 g/m*3 21.9 C 1.6 km/h
194 24-09-2016 16:05:00 21.8 C 11.51 g/m*3 21.8 C 1.6 km/h
195 24-09-2016 16:10:00 21.8 C 11.9 g/m*3 21.8 C 8.1 km/h
196 24-09-2016 16:15:00 21.8 C 11.51 g/m*3 21.8 C 3.2 km/h
197 24-09-2016 16:20:00 21.8 C 11.32 g/m*3 21.8 C 6.4 km/h
198 24-09-2016 16:25:00 21.7 C 10.49 g/m*3 21.7 C 4.8 km/h
199 24-09-2016 16:30:00 21.6 C 11.38 g/m*3 21.6 C 1.6 km/h
200 24-09-2016 16:35:00 21.6 C 9.86 g/m*3 21.6 C 6.4 km/h
Sensor: Nr:Datum:Temp:Abs-Feuchte:Windchill:Wind:
Aussen-T/F 201 24-09-2016 16:40:00 21.7 C 10.3 g/m*3 21.7 C 1.6 km/h
202 24-09-2016 16:45:00 21.7 C 10.3 g/m*3 21.7 C 6.4 km/h
203 24-09-2016 16:50:00 21.7 C 9.54 g/m*3 21.7 C 6.4 km/h
204 24-09-2016 16:55:00 21.7 C 11.25 g/m*3 21.7 C 1.6 km/h
205 24-09-2016 17:00:00 21.4 C 10.31 g/m*3 21.4 C 4.8 km/h
206 24-09-2016 17:05:00 21.3 C 9.69 g/m*3 21.3 C 6.4 km/h
207 24-09-2016 17:10:00 21.4 C 9.75 g/m*3 21.4 C 6.4 km/h
208 24-09-2016 17:15:00 21.3 C 10.44 g/m*3 21.3 C 1.6 km/h
209 24-09-2016 17:20:00 21.4 C 10.31 g/m*3 21.4 C 3.2 km/h
210 24-09-2016 17:25:00 21.7 C 11.06 g/m*3 21.7 C 3.2 km/h
211 24-09-2016 17:30:00 21.8 C 11.32 g/m*3 21.8 C 4.8 km/h
212 24-09-2016 17:35:00 22.1 C 10.54 g/m*3 22.1 C 3.2 km/h
213 24-09-2016 17:40:00 22.1 C 11.52 g/m*3 22.1 C 0 km/h
214 24-09-2016 17:45:00 21.9 C 11.19 g/m*3 21.9 C 0 km/h
215 24-09-2016 17:50:00 21.6 C 11.38 g/m*3 21.6 C 1.6 km/h
216 24-09-2016 17:55:00 21.2 C 11.12 g/m*3 21.2 C 1.6 km/h
217 24-09-2016 18:00:00 20.9 C 11.11 g/m*3 20.9 C 1.6 km/h
218 24-09-2016 18:05:00 20.6 C 11.28 g/m*3 20.6 C 0 km/h
219 24-09-2016 18:10:00 20.3 C 11.26 g/m*3 20.3 C 0 km/h
220 24-09-2016 18:15:00 20.1 C 11.13 g/m*3 20.1 C 1.6 km/h
221 24-09-2016 18:20:00 19.8 C 11.1 g/m*3 19.8 C 1.6 km/h
222 24-09-2016 18:25:00 19.6 C 10.97 g/m*3 19.6 C 1.6 km/h
223 24-09-2016 18:30:00 19.3 C 10.95 g/m*3 19.3 C 0 km/h
224 24-09-2016 18:35:00 19.1 C 10.98 g/m*3 19.1 C 0 km/h
225 24-09-2016 18:40:00 18.9 C 10.85 g/m*3 18.9 C 0 km/h
Sensor: Nr:Datum:Temp:Abs-Feuchte:Windchill:Wind:
Aussen-T/F 226 24-09-2016 18:45:00 18.7 C 10.89 g/m*3 18.7 C 0 km/h
227 24-09-2016 18:50:00 18.4 C 10.85 g/m*3 18.4 C 1.6 km/h
228 24-09-2016 18:55:00 18.3 C 10.79 g/m*3 18.3 C 1.6 km/h
229 24-09-2016 19:00:00 18.1 C 10.82 g/m*3 18.1 C 1.6 km/h
230 24-09-2016 19:05:00 17.9 C 10.69 g/m*3 17.9 C 1.6 km/h
231 24-09-2016 19:10:00 17.7 C 10.56 g/m*3 17.7 C 1.6 km/h
232 24-09-2016 19:15:00 17.5 C 10.44 g/m*3 17.5 C 0 km/h
233 24-09-2016 19:20:00 17.2 C 10.4 g/m*3 17.2 C 1.6 km/h
234 24-09-2016 19:25:00 17 C 10.27 g/m*3 17 C 1.6 km/h
235 24-09-2016 19:30:00 16.8 C 10.15 g/m*3 16.8 C 1.6 km/h
236 24-09-2016 19:35:00 16.6 C 10.03 g/m*3 16.6 C 0 km/h
237 24-09-2016 19:40:00 16.4 C 10.05 g/m*3 16.4 C 0 km/h
238 24-09-2016 19:45:00 16.3 C 9.99 g/m*3 16.3 C 0 km/h
239 24-09-2016 19:50:00 16.1 C 10.01 g/m*3 16.1 C 0 km/h
240 24-09-2016 19:55:00 15.9 C 9.89 g/m*3 15.9 C 0 km/h
241 24-09-2016 20:00:00 15.8 C 9.83 g/m*3 15.8 C 1.6 km/h
242 24-09-2016 20:05:00 15.7 C 9.77 g/m*3 15.7 C 1.6 km/h
243 24-09-2016 20:10:00 15.6 C 9.71 g/m*3 15.6 C 1.6 km/h
244 24-09-2016 20:15:00 15.5 C 9.78 g/m*3 15.5 C 0 km/h
245 24-09-2016 20:20:00 15.4 C 9.72 g/m*3 15.4 C 1.6 km/h
246 24-09-2016 20:25:00 15.4 C 9.85 g/m*3 15.4 C 1.6 km/h
247 24-09-2016 20:30:00 15.3 C 9.79 g/m*3 15.3 C 1.6 km/h
248 24-09-2016 20:35:00 15.3 C 9.79 g/m*3 15.3 C 1.6 km/h
249 24-09-2016 20:40:00 15.3 C 9.79 g/m*3 15.3 C 1.6 km/h
250 24-09-2016 20:45:00 15.3 C 9.92 g/m*3 15.3 C 1.6 km/h
Sensor: Nr:Datum:Temp:Abs-Feuchte:Windchill:Wind:
Aussen-T/F 251 24-09-2016 20:50:00 15.3 C 9.92 g/m*3 15.3 C 0 km/h
252 24-09-2016 20:55:00 15.2 C 9.86 g/m*3 15.2 C 0 km/h
253 24-09-2016 21:00:00 15.2 C 9.86 g/m*3 15.2 C 0 km/h
254 24-09-2016 21:05:00 15.1 C 9.93 g/m*3 15.1 C 0 km/h
255 24-09-2016 21:10:00 15.1 C 9.93 g/m*3 15.1 C 0 km/h
256 24-09-2016 21:15:00 15 C 10 g/m*3 15 C 0 km/h
257 24-09-2016 21:20:00 15 C 10 g/m*3 15 C 0 km/h
258 24-09-2016 21:25:00 14.9 C 9.94 g/m*3 14.9 C 0 km/h
259 24-09-2016 21:30:00 14.9 C 10.07 g/m*3 14.9 C 0 km/h
260 24-09-2016 21:35:00 14.9 C 10.07 g/m*3 14.9 C 0 km/h
261 24-09-2016 21:40:00 14.8 C 10.01 g/m*3 14.8 C 0 km/h
262 24-09-2016 21:45:00 14.7 C 10.07 g/m*3 14.7 C 0 km/h
263 24-09-2016 21:50:00 14.4 C 9.89 g/m*3 14.4 C 0 km/h
264 24-09-2016 21:55:00 14.2 C 9.89 g/m*3 14.2 C 0 km/h
265 24-09-2016 22:00:00 13.9 C 9.83 g/m*3 13.9 C 0 km/h
266 24-09-2016 22:05:00 13.7 C 9.83 g/m*3 13.7 C 0 km/h
267 24-09-2016 22:10:00 13.4 C 9.88 g/m*3 13.4 C 0 km/h
268 24-09-2016 22:15:00 13.3 C 9.82 g/m*3 13.3 C 0 km/h
269 24-09-2016 22:20:00 13.2 C 9.87 g/m*3 13.2 C 0 km/h
270 24-09-2016 22:25:00 13.1 C 9.81 g/m*3 13.1 C 0 km/h
271 24-09-2016 22:30:00 12.9 C 9.69 g/m*3 12.9 C 0 km/h
272 24-09-2016 22:35:00 12.8 C 9.63 g/m*3 12.8 C 0 km/h
273 24-09-2016 22:40:00 12.7 C 9.68 g/m*3 12.7 C 0 km/h
274 24-09-2016 22:45:00 12.6 C 9.62 g/m*3 12.6 C 0 km/h
275 24-09-2016 22:50:00 12.4 C 9.51 g/m*3 12.4 C 0 km/h
Sensor: Nr:Datum:Temp:Abs-Feuchte:Windchill:Wind:
Aussen-T/F 276 24-09-2016 22:55:00 12.3 C 9.56 g/m*3 12.3 C 0 km/h
277 24-09-2016 23:00:00 12.2 C 9.5 g/m*3 12.2 C 0 km/h
278 24-09-2016 23:05:00 12 C 9.38 g/m*3 12 C 0 km/h
279 24-09-2016 23:10:00 11.9 C 9.43 g/m*3 11.9 C 0 km/h
280 24-09-2016 23:15:00 11.8 C 9.37 g/m*3 11.8 C 0 km/h
281 24-09-2016 23:20:00 11.8 C 9.47 g/m*3 11.8 C 0 km/h
282 24-09-2016 23:25:00 11.7 C 9.41 g/m*3 11.7 C 0 km/h
283 24-09-2016 23:30:00 11.6 C 9.35 g/m*3 11.6 C 0 km/h
284 24-09-2016 23:35:00 11.6 C 9.35 g/m*3 11.6 C 0 km/h
285 24-09-2016 23:40:00 11.4 C 9.24 g/m*3 11.4 C 0 km/h
286 24-09-2016 23:45:00 11.3 C 9.18 g/m*3 11.3 C 0 km/h
287 24-09-2016 23:50:00 11.3 C 9.28 g/m*3 11.3 C 0 km/h
288 24-09-2016 23:55:00 11.2 C 9.22 g/m*3 11.2 C 0 km/h

Legende:
   Min
   Max


Maximal/Minimal-Werte vom 24.09.2016 - 24.09.2016

Sensor Min Max Avg
Temp
(Aussen-T/F)
8.6 °C
24-09-2016  07:30:00
22.1 °C
24-09-2016  15:45:00
13.82 °C
Abs-Feuchte
(Aussen-T/F)
8.22 g/m*3
24-09-2016  07:10:00
13.6 g/m*3
24-09-2016  14:10:00
10.01 g/m*3
Windchill
(Aussen-T/F)
8.6 C
24-09-2016  07:30:00
22.1 C
24-09-2016  15:45:00
13.78 C

Die Daten stammen von einer Davis Vantage Pro 2 Wetter-Station und werden unter Linux mit der Software wview2wettercgi und aufbereitet. Alle Angaben erfolgen ohne Gewähr für ihre Vollständigkeit oder Richtigkeit.
Kontakt: Rainer Krienke krienke@uni-koblenz.de . Meine Webseiten an der Uni Koblenz oder privat.
Version: $Revision: 0.78 $